Time;durP1;ratioP1;P1;durP2;ratioP2;P2;SDS_P1;SDS_P2;PMS_P1;PMS_P2;Temp;Humidity;BMP_temperature;BMP_pressure;BME280_temperature;BME280_humidity;BME280_pressure;Samples;Min_cycle;Max_cycle;Signal;HPM_P1;HPM_P2
2023/02/08 00:00:15;;;;;;;20.60;11.07;;;1.20;77.60;;;;;;5053348;28;20024;-78
2023/02/08 00:02:41;;;;;;;21.30;11.40;;;1.10;77.60;;;;;;5054337;28;20020;-77
2023/02/08 00:05:07;;;;;;;21.77;11.20;;;1.10;77.90;;;;;;5053461;28;20061;-77
2023/02/08 00:07:33;;;;;;;20.67;10.47;;;1.10;77.60;;;;;;5053016;28;20040;-77
2023/02/08 00:09:58;;;;;;;18.93;10.90;;;1.20;77.70;;;;;;5052835;28;20380;-77
2023/02/08 00:12:24;;;;;;;18.27;11.10;;;1.00;77.70;;;;;;5054511;28;20025;-77
2023/02/08 00:14:50;;;;;;;19.33;10.67;;;1.10;77.90;;;;;;5052358;28;20118;-77
2023/02/08 00:17:15;;;;;;;21.17;10.50;;;1.00;78.00;;;;;;5054695;28;20037;-77
2023/02/08 00:19:41;;;;;;;21.00;11.70;;;1.00;78.00;;;;;;5052720;28;20495;-77
2023/02/08 00:22:07;;;;;;;23.40;12.30;;;1.00;78.20;;;;;;5036351;28;20523;-77
2023/02/08 00:24:32;;;;;;;26.50;13.17;;;1.00;78.20;;;;;;5036154;28;20075;-77
2023/02/08 00:26:58;;;;;;;26.33;11.80;;;1.00;78.30;;;;;;5052679;28;20033;-77
2023/02/08 00:29:24;;;;;;;25.00;12.77;;;1.00;78.30;;;;;;5035775;28;20088;-77
2023/02/08 00:31:49;;;;;;;22.33;11.27;;;1.10;78.30;;;;;;5035929;28;20036;-77
2023/02/08 00:34:15;;;;;;;26.40;12.10;;;0.90;78.20;;;;;;5036148;28;20087;-77
2023/02/08 00:36:40;;;;;;;20.07;10.60;;;0.90;78.30;;;;;;5052025;28;20036;-77
2023/02/08 00:39:06;;;;;;;24.20;12.00;;;0.90;78.40;;;;;;5052368;28;20103;-78
2023/02/08 00:41:32;;;;;;;21.47;11.50;;;0.90;78.50;;;;;;5052247;28;20029;-77
2023/02/08 00:43:57;;;;;;;21.40;11.33;;;0.80;78.40;;;;;;5035750;28;20078;-78
2023/02/08 00:46:23;;;;;;;21.53;11.20;;;0.80;78.60;;;;;;5036136;28;20394;-77
2023/02/08 00:48:48;;;;;;;20.10;10.43;;;0.80;78.60;;;;;;5035415;28;20021;-77
2023/02/08 00:51:14;;;;;;;20.17;10.67;;;0.90;78.70;;;;;;5052408;28;20354;-77
2023/02/08 00:53:43;;;;;;;19.87;10.43;;;0.80;78.70;;;;;;5053800;28;20029;-78
2023/02/08 00:56:10;;;;;;;21.07;10.50;;;0.70;78.70;;;;;;5052114;28;20048;-78
2023/02/08 00:58:36;;;;;;;18.10;9.73;;;0.80;78.80;;;;;;5051771;28;20044;-77
2023/02/08 01:01:03;;;;;;;18.53;9.90;;;0.80;78.90;;;;;;5035337;28;20083;-78
2023/02/08 01:03:29;;;;;;;19.80;10.17;;;0.70;78.90;;;;;;5035248;28;20484;-77
2023/02/08 01:06:00;;;;;;;21.47;10.20;;;0.70;78.90;;;;;;5021793;28;20060;-77
2023/02/08 01:08:26;;;;;;;16.80;9.53;;;0.60;78.90;;;;;;5037011;28;20021;-78
2023/02/08 01:10:52;;;;;;;19.03;9.77;;;0.60;79.00;;;;;;5039966;28;20434;-78
2023/02/08 01:13:17;;;;;;;17.10;9.33;;;0.60;79.10;;;;;;5042010;28;20458;-78
2023/02/08 01:15:43;;;;;;;17.60;9.83;;;0.60;79.20;;;;;;5039279;28;20061;-78
2023/02/08 01:18:09;;;;;;;16.77;9.40;;;0.60;79.20;;;;;;5023516;28;20041;-78
2023/02/08 01:20:36;;;;;;;18.87;9.73;;;0.60;79.30;;;;;;5040062;28;20041;-78
2023/02/08 01:23:02;;;;;;;18.50;10.13;;;0.60;79.40;;;;;;5024970;28;20116;-78
2023/02/08 01:25:28;;;;;;;20.37;10.57;;;0.50;79.30;;;;;;5023473;28;20030;-77
2023/02/08 01:27:56;;;;;;;19.53;10.27;;;0.50;79.40;;;;;;5041487;28;20083;-77
2023/02/08 01:30:22;;;;;;;20.03;10.33;;;0.50;80.10;;;;;;5038959;28;20055;-78
2023/02/08 01:32:47;;;;;;;18.77;10.70;;;0.50;79.60;;;;;;5023920;28;20030;-78
2023/02/08 01:35:13;;;;;;;18.93;10.93;;;0.50;79.60;;;;;;5023417;28;20021;-78
2023/02/08 01:37:39;;;;;;;20.07;11.10;;;0.40;79.50;;;;;;5040824;28;20508;-78
2023/02/08 01:40:05;;;;;;;19.43;10.07;;;0.40;79.70;;;;;;5023469;28;20021;-77
2023/02/08 01:42:31;;;;;;;18.10;9.57;;;0.40;79.70;;;;;;5039799;28;20475;-78
2023/02/08 01:45:14;;;;;;;19.43;10.07;;;0.40;79.80;;;;;;5024612;28;20133;-78
2023/02/08 01:47:42;;;;;;;20.55;9.65;;;0.40;79.90;;;;;;5041480;28;20027;-78
2023/02/08 01:50:08;;;;;;;20.27;10.93;;;0.40;79.90;;;;;;5038860;28;20057;-78
2023/02/08 01:52:34;;;;;;;17.27;8.87;;;0.40;79.90;;;;;;5042263;28;20075;-78
2023/02/08 01:55:14;;;;;;;17.57;10.00;;;0.30;80.00;;;;;;5030432;28;20101;-78
2023/02/08 01:57:42;;;;;;;17.93;10.33;;;0.30;80.00;;;;;;5030473;28;20042;-77
2023/02/08 02:00:14;;;;;;;19.97;10.23;;;0.30;80.20;;;;;;5030497;28;20021;-78
2023/02/08 02:02:42;;;;;;;19.07;10.03;;;0.30;80.20;;;;;;5031608;28;20604;-78
2023/02/08 02:05:08;;;;;;;19.50;10.73;;;0.30;80.20;;;;;;5030295;28;20029;-78
2023/02/08 02:07:35;;;;;;;22.47;10.23;;;0.30;80.30;;;;;;5029845;28;20034;-78
2023/02/08 02:10:09;;;;;;;20.33;10.87;;;0.30;80.40;;;;;;5030358;28;20401;-78
2023/02/08 02:12:37;;;;;;;20.47;10.13;;;0.20;80.40;;;;;;5029990;28;20032;-77
2023/02/08 02:16:22;;;;;;;17.63;9.43;;;0.20;80.50;;;;;;5143919;27;20465;-76
2023/02/08 02:18:47;;;;;;;19.70;9.87;;;0.20;80.60;;;;;;5109884;28;20044;-76
2023/02/08 02:21:28;;;;;;;16.17;9.43;;;0.20;80.70;;;;;;5109964;28;20402;-76
2023/02/08 02:24:09;;;;;;;19.73;9.67;;;0.20;80.80;;;;;;5110961;28;20520;-76
2023/02/08 02:26:53;;;;;;;20.00;9.77;;;0.10;80.70;;;;;;5109875;28;20063;-76
2023/02/08 02:29:37;;;;;;;18.42;10.32;;;0.10;80.90;;;;;;5143711;27;20046;-77
2023/02/08 02:32:20;;;;;;;18.77;10.00;;;0.10;80.80;;;;;;5110921;28;20027;-77
2023/02/08 02:35:03;;;;;;;21.10;9.75;;;0.10;80.80;;;;;;5108739;28;20434;-77
2023/02/08 02:37:57;;;;;;;21.63;10.57;;;0.10;80.90;;;;;;5109131;28;20020;-76
2023/02/08 02:40:42;;;;;;;;;;;0.00;80.90;;;;;;5101447;28;20416;-77
2023/02/08 02:46:36;;;;;;;18.80;8.77;;;0.00;80.90;;;;;;5087794;28;20067;-77
2023/02/08 02:49:13;;;;;;;16.47;8.43;;;0.00;80.80;;;;;;5106014;28;20093;-77
2023/02/08 02:51:42;;;;;;;17.50;9.17;;;-0.10;80.90;;;;;;5110129;28;20024;-76
2023/02/08 02:54:15;;;;;;;17.53;9.20;;;-0.10;81.00;;;;;;5143286;27;20496;-77
2023/02/08 02:56:45;;;;;;;19.88;10.07;;;-0.10;81.10;;;;;;5109968;28;20054;-76
2023/02/08 02:59:12;;;;;;;18.57;9.63;;;-0.10;81.20;;;;;;5143532;27;20047;-76
2023/02/08 03:01:40;;;;;;;21.37;10.20;;;-0.10;81.20;;;;;;5092110;28;20024;-76
2023/02/08 03:04:31;;;;;;;18.30;10.23;;;-0.10;81.30;;;;;;5107504;28;20468;-76
2023/02/08 03:07:11;;;;;;;19.33;10.10;;;-0.10;81.40;;;;;;5086967;28;20058;-76
2023/02/08 03:09:45;;;;;;;19.70;9.70;;;-0.10;81.50;;;;;;5087447;28;20411;-76
2023/02/08 03:12:46;;;;;;;22.07;10.83;;;-0.10;81.60;;;;;;5121224;27;20089;-76
2023/02/08 03:15:26;;;;;;;21.33;10.70;;;-0.10;81.70;;;;;;5088893;28;20079;-76
2023/02/08 03:18:19;;;;;;;19.73;10.50;;;-0.10;81.70;;;;;;5089732;28;20503;-76
2023/02/08 03:21:07;;;;;;;19.17;10.03;;;-0.10;81.80;;;;;;5089298;28;20626;-76
2023/02/08 03:23:51;;;;;;;20.60;10.57;;;-0.10;81.80;;;;;;5088202;28;20112;-76
2023/02/08 03:26:46;;;;;;;19.97;10.67;;;-0.10;81.70;;;;;;5084037;28;20439;-76
2023/02/08 03:29:26;;;;;;;18.13;9.75;;;-0.10;81.70;;;;;;5074149;28;20283;-76
2023/02/08 03:31:58;;;;;;;20.37;10.03;;;-0.20;81.70;;;;;;5108812;28;20405;-76
2023/02/08 03:34:44;;;;;;;19.30;10.50;;;-0.20;81.70;;;;;;5074312;28;20774;-76
2023/02/08 03:37:15;;;;;;;20.43;10.27;;;-0.20;81.80;;;;;;5073941;28;20024;-76
2023/02/08 03:39:44;;;;;;;21.10;9.70;;;-0.20;81.90;;;;;;5075613;28;20024;-76
2023/02/08 03:42:16;;;;;;;20.03;10.27;;;-0.10;82.00;;;;;;5075445;28;20270;-76
2023/02/08 03:44:47;;;;;;;18.20;9.73;;;-0.30;82.00;;;;;;5074552;28;20090;-76
2023/02/08 03:47:21;;;;;;;19.23;9.70;;;-0.20;82.10;;;;;;5074388;28;20039;-76
2023/02/08 03:49:51;;;;;;;18.40;10.60;;;-0.30;82.10;;;;;;5074232;28;20028;-76
2023/02/08 03:52:17;;;;;;;21.27;10.73;;;-0.30;82.10;;;;;;5075366;28;20111;-76
2023/02/08 03:54:54;;;;;;;18.70;9.83;;;-0.30;82.20;;;;;;5090888;28;20790;-76
2023/02/08 03:57:32;;;;;;;19.40;10.87;;;-0.30;82.30;;;;;;5074208;28;20024;-76
2023/02/08 04:00:07;;;;;;;18.93;9.30;;;-0.30;82.40;;;;;;5073930;28;20274;-76
2023/02/08 04:02:37;;;;;;;18.90;9.93;;;-0.30;82.40;;;;;;5073777;28;20278;-77
2023/02/08 04:05:04;;;;;;;19.00;9.50;;;-0.30;82.40;;;;;;5073764;28;20642;-76
2023/02/08 04:07:30;;;;;;;21.80;10.10;;;-0.40;82.40;;;;;;5073491;28;20281;-77
2023/02/08 04:09:56;;;;;;;18.13;9.73;;;-0.40;82.60;;;;;;5090879;28;20025;-77
2023/02/08 04:12:22;;;;;;;18.57;9.13;;;-0.40;82.60;;;;;;5073836;28;20032;-77
2023/02/08 04:14:48;;;;;;;19.97;10.37;;;-0.40;82.60;;;;;;5073670;28;20400;-76
2023/02/08 04:17:13;;;;;;;20.10;10.70;;;-0.40;82.60;;;;;;5090140;28;20476;-76
2023/02/08 04:19:39;;;;;;;18.37;9.87;;;-0.40;82.70;;;;;;5090671;28;20033;-77
2023/02/08 04:22:05;;;;;;;19.47;11.07;;;-0.40;82.70;;;;;;5056763;28;20029;-76
2023/02/08 04:24:31;;;;;;;19.83;9.67;;;-0.40;82.60;;;;;;5073759;28;20025;-76
2023/02/08 04:26:56;;;;;;;21.40;10.53;;;-0.40;82.60;;;;;;5056757;28;20120;-76
2023/02/08 04:29:22;;;;;;;19.33;10.67;;;-0.40;82.70;;;;;;5107648;28;20444;-76
2023/02/08 04:31:48;;;;;;;20.53;10.17;;;-0.40;82.80;;;;;;5089775;28;20484;-77
2023/02/08 04:34:13;;;;;;;18.73;9.80;;;-0.40;82.80;;;;;;5073625;28;20037;-76
2023/02/08 04:36:39;;;;;;;18.03;9.07;;;-0.40;82.80;;;;;;5056810;28;20029;-77
2023/02/08 04:39:05;;;;;;;22.33;10.67;;;-0.50;82.80;;;;;;5055412;28;20131;-76
2023/02/08 04:41:30;;;;;;;20.60;9.67;;;-0.50;82.90;;;;;;5107243;28;20040;-76
2023/02/08 04:43:56;;;;;;;21.63;10.63;;;-0.50;83.00;;;;;;5056556;28;20420;-77
2023/02/08 04:46:22;;;;;;;22.90;11.03;;;-0.50;83.10;;;;;;5090078;28;20028;-76
2023/02/08 04:48:47;;;;;;;21.17;10.83;;;-0.40;83.20;;;;;;5106802;28;20392;-76
2023/02/08 04:51:13;;;;;;;19.83;9.33;;;-0.50;83.20;;;;;;5089807;28;20496;-76
2023/02/08 04:53:38;;;;;;;19.60;10.17;;;-0.50;83.30;;;;;;5072817;28;20028;-77
2023/02/08 04:56:04;;;;;;;18.73;9.60;;;-0.50;83.40;;;;;;5072907;28;20063;-76
2023/02/08 04:58:30;;;;;;;19.87;10.23;;;-0.50;83.40;;;;;;5056260;28;20025;-76
2023/02/08 05:00:55;;;;;;;16.47;9.43;;;-0.50;83.40;;;;;;5089741;28;20046;-77
2023/02/08 05:03:21;;;;;;;19.30;10.27;;;-0.60;83.40;;;;;;5056148;28;20075;-77
2023/02/08 05:05:56;;;;;;;18.33;9.40;;;-0.60;83.50;;;;;;5072392;28;20066;-77
2023/02/08 05:08:21;;;;;;;25.93;10.70;;;-0.60;83.50;;;;;;5072776;28;20107;-77
2023/02/08 05:10:47;;;;;;;18.57;10.33;;;-0.60;83.40;;;;;;5089430;28;20863;-77
2023/02/08 05:13:13;;;;;;;20.17;10.40;;;-0.60;83.40;;;;;;5089643;28;20028;-77
2023/02/08 05:15:38;;;;;;;18.90;10.17;;;-0.70;83.50;;;;;;5071888;28;20451;-77
2023/02/08 05:18:04;;;;;;;19.73;9.90;;;-0.70;83.50;;;;;;5100506;28;20392;-77
2023/02/08 05:20:30;;;;;;;20.77;9.63;;;-0.70;83.50;;;;;;5111913;27;20465;-77
2023/02/08 05:22:56;;;;;;;20.57;10.30;;;-0.70;83.60;;;;;;5086864;28;20575;-77
2023/02/08 05:25:21;;;;;;;19.50;9.23;;;-0.70;83.70;;;;;;5070329;28;20361;-77
2023/02/08 05:27:47;;;;;;;20.63;9.97;;;-0.70;83.80;;;;;;5086405;28;20047;-77
2023/02/08 05:30:13;;;;;;;18.87;9.83;;;-0.70;83.80;;;;;;5071178;28;20032;-76
2023/02/08 05:32:38;;;;;;;20.67;10.10;;;-0.70;83.80;;;;;;5087983;28;20083;-77
2023/02/08 05:35:04;;;;;;;18.93;10.83;;;-0.70;83.80;;;;;;5089131;28;20048;-77
2023/02/08 05:37:30;;;;;;;19.47;9.60;;;-0.70;83.80;;;;;;5071664;28;20031;-78
2023/02/08 05:39:55;;;;;;;22.10;9.57;;;-0.70;83.80;;;;;;5072383;28;20067;-78
2023/02/08 05:42:21;;;;;;;19.07;9.27;;;-0.70;84.00;;;;;;5072101;28;20028;-78
2023/02/08 05:44:47;;;;;;;19.80;9.80;;;-0.70;83.90;;;;;;5055436;28;20116;-78
2023/02/08 05:47:12;;;;;;;19.03;10.00;;;-0.70;83.90;;;;;;5055417;28;20388;-78
2023/02/08 05:49:38;;;;;;;20.30;10.63;;;-0.70;83.80;;;;;;5105802;28;20509;-78
2023/02/08 05:52:04;;;;;;;18.00;10.07;;;-0.60;83.90;;;;;;5071913;28;20157;-78
2023/02/08 05:54:29;;;;;;;17.80;9.40;;;-0.70;83.80;;;;;;5073107;28;20041;-77
2023/02/08 05:56:55;;;;;;;20.07;10.20;;;-0.60;83.90;;;;;;5089079;28;20067;-78
2023/02/08 05:59:21;;;;;;;21.97;11.13;;;-0.60;83.90;;;;;;5088774;28;20036;-78
2023/02/08 06:01:46;;;;;;;21.47;10.70;;;-0.70;83.80;;;;;;5072303;28;20094;-77
2023/02/08 06:04:12;;;;;;;23.73;11.27;;;-0.60;83.90;;;;;;5088610;28;20419;-78
2023/02/08 06:06:37;;;;;;;21.73;10.37;;;-0.70;83.80;;;;;;5088237;28;20496;-78
2023/02/08 06:09:03;;;;;;;21.07;10.80;;;-0.70;83.80;;;;;;5071616;28;20031;-77
2023/02/08 06:11:29;;;;;;;21.63;11.40;;;-0.70;83.80;;;;;;5073155;28;20028;-78
2023/02/08 06:13:55;;;;;;;20.93;9.90;;;-0.70;83.80;;;;;;5071590;28;20029;-77
2023/02/08 06:16:20;;;;;;;20.47;10.97;;;-0.70;83.80;;;;;;5072592;28;20092;-78
2023/02/08 06:18:46;;;;;;;21.83;10.57;;;-0.70;83.80;;;;;;5071761;28;20024;-77
2023/02/08 06:21:12;;;;;;;21.97;11.27;;;-0.70;83.80;;;;;;5088617;28;20028;-77
2023/02/08 06:23:37;;;;;;;22.03;11.40;;;-0.80;83.80;;;;;;5071903;28;20468;-77
2023/02/08 06:26:03;;;;;;;23.13;11.00;;;-0.70;84.00;;;;;;5072721;28;20048;-77
2023/02/08 06:28:29;;;;;;;23.10;11.37;;;-0.80;84.00;;;;;;5071408;28;20032;-77
2023/02/08 06:30:54;;;;;;;24.43;11.87;;;-0.70;84.10;;;;;;5071077;28;20107;-77
2023/02/08 06:33:20;;;;;;;20.43;10.40;;;-0.80;84.00;;;;;;5071667;28;20025;-77
2023/02/08 06:35:47;;;;;;;23.40;11.33;;;-0.80;84.10;;;;;;5070991;28;20047;-77
2023/02/08 06:38:13;;;;;;;23.73;12.00;;;-0.80;84.20;;;;;;5072475;28;20161;-77
2023/02/08 06:40:39;;;;;;;19.90;10.90;;;-0.80;84.20;;;;;;5072496;28;20317;-77
2023/02/08 06:43:04;;;;;;;18.97;10.83;;;-0.80;84.30;;;;;;5088273;28;20282;-77
2023/02/08 06:45:30;;;;;;;20.77;10.77;;;-0.80;84.30;;;;;;5071412;28;20025;-77
2023/02/08 06:47:56;;;;;;;22.10;10.93;;;-0.80;84.40;;;;;;5071181;28;20024;-77
2023/02/08 06:50:21;;;;;;;23.37;11.07;;;-0.80;84.50;;;;;;5087910;28;20078;-77
2023/02/08 06:52:47;;;;;;;23.63;11.30;;;-0.90;84.40;;;;;;5072307;28;20017;-78
2023/02/08 06:55:13;;;;;;;21.93;10.53;;;-0.80;84.50;;;;;;5088081;28;20036;-77
2023/02/08 06:57:38;;;;;;;21.30;11.07;;;-0.90;84.50;;;;;;5088262;28;20028;-77
2023/02/08 07:00:05;;;;;;;22.13;11.27;;;-0.80;84.60;;;;;;5104861;28;20078;-77
2023/02/08 07:02:31;;;;;;;23.13;11.70;;;-0.90;84.60;;;;;;5074294;28;20412;-77
2023/02/08 07:04:57;;;;;;;23.57;11.67;;;-0.90;84.70;;;;;;5092872;28;20372;-77
2023/02/08 07:07:22;;;;;;;24.23;10.90;;;-0.90;84.80;;;;;;5075926;28;20790;-77
2023/02/08 07:09:48;;;;;;;20.27;11.57;;;-0.90;84.80;;;;;;5075436;28;20460;-77
2023/02/08 07:12:14;;;;;;;23.37;12.13;;;-0.80;84.90;;;;;;5093055;28;20074;-78
2023/02/08 07:14:42;;;;;;;25.00;11.80;;;-0.90;85.00;;;;;;5075707;28;20508;-77
2023/02/08 07:17:08;;;;;;;22.60;10.87;;;-0.90;85.10;;;;;;5076148;28;20021;-77
2023/02/08 07:19:33;;;;;;;21.70;11.60;;;-0.90;85.20;;;;;;5074958;28;20328;-77
2023/02/08 07:22:06;;;;;;;24.37;11.50;;;-0.80;85.20;;;;;;5092093;28;20673;-77
2023/02/08 07:24:34;;;;;;;18.02;9.10;;;-0.80;85.30;;;;;;5097901;28;20040;-76
2023/02/08 07:27:00;;;;;;;20.93;11.50;;;-0.80;85.30;;;;;;5094932;28;20057;-77
2023/02/08 07:29:28;;;;;;;21.43;10.80;;;-0.80;85.30;;;;;;5103122;28;20365;-77
2023/02/08 07:31:54;;;;;;;23.13;11.60;;;-0.80;85.30;;;;;;5121063;27;20377;-77
2023/02/08 07:34:20;;;;;;;20.73;11.03;;;-0.80;85.40;;;;;;5111535;28;20359;-77
2023/02/08 07:36:47;;;;;;;19.47;11.17;;;-0.70;85.50;;;;;;5094474;28;20032;-76
2023/02/08 07:39:13;;;;;;;20.13;10.63;;;-0.80;85.60;;;;;;5095934;28;20282;-76
2023/02/08 07:41:39;;;;;;;22.70;11.23;;;-0.70;85.80;;;;;;5108011;28;20381;-76
2023/02/08 07:44:05;;;;;;;22.63;12.50;;;-0.70;85.80;;;;;;5094645;28;20849;-76
2023/02/08 07:46:31;;;;;;;26.03;11.77;;;-0.70;85.90;;;;;;5077075;28;20024;-76
2023/02/08 07:48:56;;;;;;;21.97;11.93;;;-0.70;85.90;;;;;;5119182;27;20107;-77
2023/02/08 07:51:22;;;;;;;19.93;10.97;;;-0.70;86.00;;;;;;5057486;28;20123;-77
2023/02/08 07:53:48;;;;;;;24.87;12.70;;;-0.60;86.10;;;;;;5090782;28;20028;-77
2023/02/08 07:56:13;;;;;;;21.90;11.60;;;-0.60;86.20;;;;;;5116231;27;20570;-76
2023/02/08 07:58:39;;;;;;;24.43;11.83;;;-0.60;86.30;;;;;;5103745;28;20370;-77
2023/02/08 08:01:05;;;;;;;26.27;11.87;;;-0.50;86.30;;;;;;5080139;28;20105;-77
2023/02/08 08:03:31;;;;;;;24.53;13.00;;;-0.50;86.30;;;;;;5079494;28;20024;-77
2023/02/08 08:05:56;;;;;;;24.33;12.70;;;-0.40;86.30;;;;;;5104405;28;20516;-77
2023/02/08 08:08:22;;;;;;;23.73;12.23;;;-0.40;86.40;;;;;;5083836;28;20020;-77
2023/02/08 08:10:48;;;;;;;21.70;11.07;;;-0.40;86.50;;;;;;5093724;28;20070;-77
2023/02/08 08:13:13;;;;;;;24.60;12.10;;;-0.40;86.40;;;;;;5111181;28;20039;-77
2023/02/08 08:15:39;;;;;;;21.70;11.07;;;-0.30;86.50;;;;;;5127830;27;20314;-77
2023/02/08 08:18:05;;;;;;;22.03;11.23;;;-0.30;86.50;;;;;;5093703;28;20028;-77
2023/02/08 08:20:31;;;;;;;19.83;11.23;;;-0.20;86.60;;;;;;5093200;28;20028;-77
2023/02/08 08:22:57;;;;;;;18.53;10.23;;;-0.20;86.60;;;;;;5103327;28;20376;-77
2023/02/08 08:25:23;;;;;;;24.37;11.30;;;-0.20;86.60;;;;;;5093672;28;20070;-77
2023/02/08 08:27:48;;;;;;;21.37;10.10;;;-0.10;86.60;;;;;;5092921;28;20024;-77
2023/02/08 08:30:16;;;;;;;21.60;10.60;;;-0.10;87.20;;;;;;5094657;28;20036;-77
2023/02/08 08:32:41;;;;;;;21.03;10.80;;;0.00;86.60;;;;;;5093224;28;20020;-77
2023/02/08 08:35:07;;;;;;;22.23;10.37;;;0.00;86.60;;;;;;5093052;28;20077;-77
2023/02/08 08:37:34;;;;;;;23.60;11.13;;;0.10;86.70;;;;;;5093979;28;20078;-77
2023/02/08 08:39:59;;;;;;;22.17;10.43;;;0.10;86.70;;;;;;5093544;28;20024;-77
2023/02/08 08:42:25;;;;;;;21.10;11.20;;;0.30;86.80;;;;;;5127817;27;20383;-77
2023/02/08 08:44:51;;;;;;;22.73;11.47;;;0.20;86.60;;;;;;5110379;28;20031;-78
2023/02/08 08:47:17;;;;;;;21.87;10.80;;;0.40;86.70;;;;;;5110156;28;20400;-77
2023/02/08 08:49:43;;;;;;;20.33;11.00;;;0.30;86.60;;;;;;5093341;28;20031;-77
2023/02/08 08:52:10;;;;;;;19.00;9.63;;;0.40;86.60;;;;;;5109847;28;20125;-77
2023/02/08 08:54:36;;;;;;;18.53;9.63;;;0.50;86.60;;;;;;5092845;28;20384;-77
2023/02/08 08:57:02;;;;;;;23.03;10.20;;;0.50;86.50;;;;;;5092707;28;20020;-77
2023/02/08 08:59:27;;;;;;;19.03;9.47;;;0.70;86.40;;;;;;5089960;28;20016;-77
2023/02/08 09:01:53;;;;;;;20.57;10.87;;;0.70;86.20;;;;;;5093094;28;20027;-77
2023/02/08 09:04:21;;;;;;;20.20;10.33;;;0.80;86.00;;;;;;5092246;28;20062;-77
2023/02/08 09:06:51;;;;;;;17.30;9.53;;;0.90;85.80;;;;;;5098113;28;20029;-77
2023/02/08 09:09:18;;;;;;;20.13;9.87;;;0.90;85.70;;;;;;5093611;28;20035;-77
2023/02/08 09:11:44;;;;;;;19.67;9.87;;;0.90;85.60;;;;;;5093042;28;20028;-77
2023/02/08 09:14:10;;;;;;;19.37;9.87;;;1.10;85.60;;;;;;5092270;28;20056;-77
2023/02/08 09:16:36;;;;;;;18.63;9.30;;;1.10;85.40;;;;;;5092224;28;20062;-77
2023/02/08 09:19:03;;;;;;;16.70;8.87;;;1.20;85.90;;;;;;5115193;27;20427;-77
2023/02/08 09:21:29;;;;;;;16.13;9.03;;;1.30;85.20;;;;;;5117775;27;20016;-77
2023/02/08 09:23:55;;;;;;;21.13;9.23;;;1.40;84.90;;;;;;5090712;28;20089;-77
2023/02/08 09:26:21;;;;;;;19.20;10.40;;;1.40;84.60;;;;;;5091940;28;20476;-77
2023/02/08 09:28:46;;;;;;;20.93;9.67;;;1.50;84.40;;;;;;5092273;28;20050;-77
2023/02/08 09:31:19;;;;;;;19.40;9.40;;;1.60;84.00;;;;;;5092105;28;20468;-77
2023/02/08 09:33:46;;;;;;;17.47;8.73;;;1.70;83.50;;;;;;5091134;28;20026;-77
2023/02/08 09:36:11;;;;;;;16.13;8.67;;;1.80;83.40;;;;;;5075284;28;20047;-77
2023/02/08 09:38:38;;;;;;;19.77;8.70;;;1.90;83.40;;;;;;5091137;28;20384;-77
2023/02/08 09:41:09;;;;;;;20.33;7.83;;;1.90;83.30;;;;;;5092623;28;20043;-82
2023/02/08 09:43:40;;;;;;;14.67;7.47;;;2.10;83.30;;;;;;5090831;28;20134;-77
2023/02/08 09:46:22;;;;;;;15.70;8.60;;;2.10;83.20;;;;;;5092644;28;20038;-77
2023/02/08 09:48:51;;;;;;;15.73;7.47;;;2.20;82.60;;;;;;5093449;28;20028;-77
2023/02/08 09:51:52;;;;;;;14.03;7.17;;;2.40;82.80;;;;;;5092214;28;20016;-77
2023/02/08 09:54:31;;;;;;;14.90;7.50;;;2.60;82.90;;;;;;5091634;28;20038;-77
2023/02/08 09:57:00;;;;;;;14.10;6.80;;;2.80;82.70;;;;;;5093311;28;20460;-77
2023/02/08 09:59:29;;;;;;;13.07;6.43;;;3.00;82.60;;;;;;5093827;28;20412;-77
2023/02/08 10:02:09;;;;;;;14.23;7.00;;;3.40;82.60;;;;;;5090583;28;20043;-79
2023/02/08 10:04:51;;;;;;;13.67;6.50;;;3.70;82.30;;;;;;5091214;28;20093;-80
2023/02/08 10:07:17;;;;;;;13.53;7.10;;;4.40;83.20;;;;;;5092962;28;20020;-78
2023/02/08 10:09:43;;;;;;;15.17;6.97;;;5.10;83.70;;;;;;5075477;28;20466;-79
2023/02/08 10:12:30;;;;;;;12.87;6.40;;;5.70;83.30;;;;;;5091613;28;20034;-79
2023/02/08 10:14:58;;;;;;;11.20;6.27;;;6.70;83.30;;;;;;5091716;28;20036;-78
2023/02/08 10:17:33;;;;;;;12.05;5.18;;;7.70;84.20;;;;;;5093050;28;20146;-79
2023/02/08 10:20:07;;;;;;;10.07;5.78;;;8.60;84.30;;;;;;5091898;28;20036;-81
2023/02/08 10:23:08;;;;;;;12.50;5.20;;;9.60;82.70;;;;;;5091318;28;20137;-81
2023/02/08 10:25:59;;;;;;;9.63;4.35;;;10.60;80.70;;;;;;5072940;28;20388;-80
2023/02/08 10:28:40;;;;;;;8.65;4.97;;;11.50;79.10;;;;;;5093113;28;20103;-83
2023/02/08 10:31:33;;;;;;;8.43;4.70;;;12.40;75.30;;;;;;5091596;28;20032;-81
2023/02/08 10:34:21;;;;;;;8.25;4.78;;;13.10;72.80;;;;;;5092709;28;20031;-80
2023/02/08 10:36:47;;;;;;;7.57;4.22;;;13.90;69.90;;;;;;5073604;28;20050;-81
2023/02/08 10:39:19;;;;;;;8.50;4.40;;;14.40;68.00;;;;;;5096739;28;20102;-82
2023/02/08 10:41:46;;;;;;;7.70;4.32;;;14.90;64.90;;;;;;5096473;28;20028;-82
2023/02/08 10:44:22;;;;;;;7.57;4.63;;;15.50;62.90;;;;;;5096271;28;20111;-82
2023/02/08 10:47:08;;;;;;;8.55;4.43;;;16.00;60.20;;;;;;5096454;28;20099;-81
2023/02/08 10:49:49;;;;;;;8.52;3.83;;;16.40;58.50;;;;;;5094114;28;20032;-81
2023/02/08 10:52:14;;;;;;;7.85;4.70;;;16.90;56.90;;;;;;5097446;28;20036;-80
2023/02/08 10:54:40;;;;;;;9.88;5.25;;;17.40;54.90;;;;;;5096421;28;20121;-79
2023/02/08 10:57:22;;;;;;;7.10;4.00;;;17.60;54.30;;;;;;5095317;28;20036;-80
2023/02/08 10:59:52;;;;;;;7.35;4.22;;;17.90;52.10;;;;;;5095434;28;20020;-80
2023/02/08 11:02:26;;;;;;;8.32;4.68;;;18.20;50.20;;;;;;5096800;28;20024;-80
2023/02/08 11:05:12;;;;;;;7.57;4.63;;;18.30;48.10;;;;;;5093865;28;20024;-80
2023/02/08 11:07:38;;;;;;;7.45;4.55;;;18.60;46.60;;;;;;5096072;28;20491;-79
2023/02/08 11:10:24;;;;;;;11.70;5.47;;;18.80;46.40;;;;;;5093490;28;20046;-81
2023/02/08 11:13:13;;;;;;;9.27;3.97;;;19.10;45.10;;;;;;5093714;28;20032;-79
2023/02/08 11:15:50;;;;;;;7.00;4.22;;;19.30;44.80;;;;;;5092328;28;20051;-80
2023/02/08 11:18:31;;;;;;;10.23;4.63;;;19.60;44.20;;;;;;5095889;28;20024;-80
2023/02/08 11:21:10;;;;;;;8.05;4.20;;;19.90;43.70;;;;;;5095095;28;20391;-82
2023/02/08 11:23:41;;;;;;;6.20;4.07;;;20.20;43.40;;;;;;5094948;28;20027;-81
2023/02/08 11:26:34;;;;;;;12.35;4.78;;;20.40;43.30;;;;;;5066821;28;20037;-80
2023/02/08 11:29:29;;;;;;;7.45;4.40;;;20.70;42.30;;;;;;5092331;28;20456;-82
2023/02/08 11:32:12;;;;;;;8.10;4.03;;;21.00;41.40;;;;;;5090858;28;20036;-82
2023/02/08 11:34:39;;;;;;;6.65;4.28;;;21.40;41.80;;;;;;5094915;28;20020;-82
2023/02/08 11:37:15;;;;;;;6.43;4.03;;;21.70;41.20;;;;;;5094603;28;20043;-82
2023/02/08 11:39:54;;;;;;;6.15;3.67;;;21.90;40.10;;;;;;5094270;28;20094;-80
2023/02/08 11:42:21;;;;;;;8.85;3.78;;;22.20;39.40;;;;;;5075418;28;20024;-83
2023/02/08 11:44:47;;;;;;;8.88;3.72;;;22.50;39.30;;;;;;5076087;28;20081;-82
2023/02/08 11:47:16;;;;;;;7.15;3.45;;;22.70;38.70;;;;;;5057050;28;20055;-81
2023/02/08 11:49:50;;;;;;;8.48;3.50;;;22.90;37.40;;;;;;5074113;28;20078;-81
2023/02/08 11:52:26;;;;;;;7.72;3.70;;;23.10;36.60;;;;;;5087009;28;20028;-80
2023/02/08 11:54:53;;;;;;;6.68;3.72;;;23.30;35.60;;;;;;5093954;28;20028;-82
2023/02/08 11:57:23;;;;;;;6.75;3.35;;;23.40;35.60;;;;;;5093687;28;20024;-81
2023/02/08 12:00:08;;;;;;;6.82;3.65;;;23.60;34.90;;;;;;5095334;28;20032;-80
2023/02/08 12:02:35;;;;;;;5.25;3.60;;;23.80;34.00;;;;;;5093580;28;20032;-80
2023/02/08 12:05:02;;;;;;;6.78;3.22;;;23.90;33.40;;;;;;5095915;28;20027;-81
2023/02/08 12:07:48;;;;;;;5.13;3.30;;;24.00;32.60;;;;;;5077021;28;20024;-82
2023/02/08 12:10:27;;;;;;;3.95;2.45;;;24.10;32.00;;;;;;5093750;28;20017;-83
2023/02/08 12:13:07;;;;;;;5.95;3.13;;;24.20;31.50;;;;;;5096263;28;20031;-82
2023/02/08 12:15:47;;;;;;;6.40;3.55;;;24.30;31.60;;;;;;5093713;28;20133;-83
2023/02/08 12:18:42;;;;;;;6.60;2.88;;;24.50;31.00;;;;;;5093887;28;20024;-82
2023/02/08 12:21:20;;;;;;;5.95;3.45;;;24.50;30.90;;;;;;5090508;28;20040;-83
2023/02/08 12:24:02;;;;;;;5.00;3.08;;;24.60;30.10;;;;;;5094934;28;20081;-82
2023/02/08 12:27:12;;;;;;;7.03;3.45;;;24.70;29.80;;;;;;5093377;28;20028;-82
2023/02/08 12:29:55;;;;;;;3.80;2.25;;;24.70;29.40;;;;;;5095152;28;20043;-82
2023/02/08 12:32:37;;;;;;;4.68;2.97;;;24.80;29.50;;;;;;5094849;28;20016;-82
2023/02/08 12:35:46;;;;;;;5.22;2.72;;;24.80;29.40;;;;;;5093907;28;20035;-82
2023/02/08 12:41:20;;;;;;;5.85;2.92;;;25.10;28.80;;;;;;5095310;28;20533;-81
2023/02/08 12:44:10;;;;;;;5.90;2.83;;;25.10;28.80;;;;;;5094747;28;20027;-81
2023/02/08 12:46:54;;;;;;;8.25;3.03;;;25.20;28.10;;;;;;5093214;28;20093;-81
2023/02/08 12:49:33;;;;;;;5.95;3.13;;;25.20;28.20;;;;;;5092914;28;20028;-81
2023/02/08 12:52:28;;;;;;;4.47;2.50;;;25.20;28.00;;;;;;5093616;28;20464;-82
2023/02/08 12:55:09;;;;;;;3.78;2.22;;;25.30;27.80;;;;;;5091262;28;20039;-78
2023/02/08 12:57:39;;;;;;;5.03;2.60;;;25.30;27.90;;;;;;5092930;28;20119;-78
2023/02/08 13:00:24;;;;;;;5.47;3.03;;;25.40;27.70;;;;;;5092018;28;20020;-78
2023/02/08 13:03:05;;;;;;;5.45;2.70;;;25.40;27.50;;;;;;5091150;28;20027;-78